Time;durP1;ratioP1;P1;durP2;ratioP2;P2;SDS_P1;SDS_P2;PMS_P1;PMS_P2;Temp;Humidity;BMP_temperature;BMP_pressure;BME280_temperature;BME280_humidity;BME280_pressure;Samples;Min_cycle;Max_cycle;Signal;HPM_P1;HPM_P2
2024/02/08 00:02:13;;;;;;;0.60;0.40;;;;;;;;;;5069688;28;20060;-78
2024/02/08 00:04:41;;;;;;;0.77;0.73;;;;;;;;;;5069060;28;20140;-78
2024/02/08 00:07:09;;;;;;;0.85;0.50;;;;;;;;;;5035736;28;20442;-78
2024/02/08 00:09:37;;;;;;;0.65;0.50;;;;;;;;;;5052913;28;20056;-78
2024/02/08 00:12:04;;;;;;;0.45;0.30;;;;;;;;;;5056025;28;20095;-78
2024/02/08 00:14:32;;;;;;;0.75;0.52;;;;;;;;;;5057837;28;20045;-78
2024/02/08 00:17:02;;;;;;;1.10;0.60;;;;;;;;;;5056568;28;20053;-78
2024/02/08 00:19:30;;;;;;;1.73;0.73;;;;;;;;;;5054949;28;20156;-78
2024/02/08 00:21:57;;;;;;;0.45;0.32;;;;;;;;;;5046224;28;20040;-78
2024/02/08 00:24:25;;;;;;;0.68;0.40;;;;;;;;;;5069423;28;20055;-78
2024/02/08 00:26:53;;;;;;;0.65;0.50;;;;;;;;;;5052609;28;20049;-78
2024/02/08 00:29:25;;;;;;;0.50;0.50;;;;;;;;;;5052233;28;20056;-77
2024/02/08 00:31:56;;;;;;;0.43;0.40;;;;;;;;;;5067684;28;20494;-78
2024/02/08 00:34:24;;;;;;;0.90;0.40;;;;;;;;;;5068820;28;20045;-77
2024/02/08 00:36:52;;;;;;;0.50;0.50;;;;;;;;;;5069074;28;20053;-78
2024/02/08 00:39:20;;;;;;;1.33;0.43;;;;;;;;;;5051610;28;20076;-78
2024/02/08 00:41:50;;;;;;;1.05;0.28;;;;;;;;;;5067335;28;20091;-77
2024/02/08 00:44:20;;;;;;;0.88;0.20;;;;;;;;;;5052496;28;20076;-78
2024/02/08 00:46:51;;;;;;;7.22;0.50;;;;;;;;;;5050995;28;20099;-77
2024/02/08 00:49:21;;;;;;;0.30;0.20;;;;;;;;;;5047382;28;20104;-78
2024/02/08 00:51:51;;;;;;;1.23;0.38;;;;;;;;;;5035345;28;20052;-78
2024/02/08 00:54:19;;;;;;;0.93;0.30;;;;;;;;;;5063881;28;20140;-77
2024/02/08 00:56:47;;;;;;;0.20;0.20;;;;;;;;;;5050863;28;20144;-78
2024/02/08 00:59:15;;;;;;;0.25;0.22;;;;;;;;;;5052544;28;20059;-77
2024/02/08 01:01:43;;;;;;;0.15;0.15;;;;;;;;;;5035525;28;20057;-78
2024/02/08 01:04:11;;;;;;;2.72;0.40;;;;;;;;;;5069011;28;20048;-78
2024/02/08 01:06:40;;;;;;;0.40;0.32;;;;;;;;;;5037659;28;20120;-78
2024/02/08 01:09:08;;;;;;;1.52;0.30;;;;;;;;;;5054397;28;20079;-78
2024/02/08 01:11:36;;;;;;;0.20;0.20;;;;;;;;;;5053474;28;20519;-78
2024/02/08 01:14:04;;;;;;;0.68;0.30;;;;;;;;;;5051831;28;20075;-78
2024/02/08 01:16:33;;;;;;;1.02;0.40;;;;;;;;;;5050444;28;20049;-78
2024/02/08 01:19:02;;;;;;;0.20;0.13;;;;;;;;;;5063605;28;20056;-78
2024/02/08 01:21:31;;;;;;;0.30;0.30;;;;;;;;;;5073743;28;20053;-79
2024/02/08 01:23:58;;;;;;;0.52;0.40;;;;;;;;;;5056824;28;20086;-79
2024/02/08 01:26:26;;;;;;;0.55;0.30;;;;;;;;;;5040571;28;20049;-78
2024/02/08 01:28:54;;;;;;;0.20;0.20;;;;;;;;;;5054754;28;20120;-78
2024/02/08 01:31:22;;;;;;;0.40;0.20;;;;;;;;;;5052201;28;20128;-78
2024/02/08 01:33:50;;;;;;;0.35;0.35;;;;;;;;;;5068097;28;20053;-78
2024/02/08 01:36:24;;;;;;;0.28;0.10;;;;;;;;;;5030731;28;20442;-78
2024/02/08 01:38:52;;;;;;;0.43;0.30;;;;;;;;;;5051474;28;20546;-78
2024/02/08 01:41:21;;;;;;;0.45;0.40;;;;;;;;;;5035503;28;20534;-78
2024/02/08 01:43:49;;;;;;;0.20;0.20;;;;;;;;;;5051481;28;20400;-77
2024/02/08 01:46:25;;;;;;;0.32;0.20;;;;;;;;;;5051409;28;20063;-78
2024/02/08 01:48:53;;;;;;;0.35;0.30;;;;;;;;;;5053028;28;20056;-78
2024/02/08 01:51:22;;;;;;;0.40;0.20;;;;;;;;;;5070119;28;20083;-78
2024/02/08 01:53:51;;;;;;;0.25;0.20;;;;;;;;;;5055294;28;20224;-78
2024/02/08 01:56:18;;;;;;;1.25;0.85;;;;;;;;;;5057107;28;20510;-79
2024/02/08 01:58:46;;;;;;;0.75;0.35;;;;;;;;;;5041501;28;20128;-78
2024/02/08 02:01:16;;;;;;;0.20;0.20;;;;;;;;;;5057389;28;20053;-78
2024/02/08 02:03:46;;;;;;;0.20;0.20;;;;;;;;;;5056560;28;20414;-79
2024/02/08 02:06:14;;;;;;;0.30;0.20;;;;;;;;;;5072638;28;20057;-78
2024/02/08 02:08:53;;;;;;;0.30;0.30;;;;;;;;;;5055396;28;20057;-78
2024/02/08 02:11:26;;;;;;;0.15;0.10;;;;;;;;;;5058721;28;20049;-79
2024/02/08 02:13:55;;;;;;;0.30;0.30;;;;;;;;;;5056107;28;20110;-78
2024/02/08 02:16:23;;;;;;;0.60;0.50;;;;;;;;;;5055194;28;20485;-78
2024/02/08 02:18:51;;;;;;;0.20;0.20;;;;;;;;;;5039008;28;20052;-78
2024/02/08 02:21:23;;;;;;;0.40;0.30;;;;;;;;;;5070937;28;20534;-78
2024/02/08 02:23:54;;;;;;;0.55;0.35;;;;;;;;;;5070903;28;20082;-78
2024/02/08 02:26:22;;;;;;;0.32;0.30;;;;;;;;;;5035008;28;20056;-79
2024/02/08 02:28:51;;;;;;;1.17;0.20;;;;;;;;;;5075501;28;20151;-79
2024/02/08 02:31:19;;;;;;;0.77;0.20;;;;;;;;;;5077830;28;20067;-78
2024/02/08 02:33:50;;;;;;;2.53;0.28;;;;;;;;;;5083871;28;20502;-79
2024/02/08 02:36:18;;;;;;;0.10;0.10;;;;;;;;;;5038339;28;20427;-78
2024/02/08 02:38:46;;;;;;;0.10;0.10;;;;;;;;;;5059450;28;20489;-79
2024/02/08 02:41:14;;;;;;;0.30;0.30;;;;;;;;;;5058181;28;20116;-79
2024/02/08 02:43:44;;;;;;;0.60;0.20;;;;;;;;;;5039682;28;20060;-79
2024/02/08 02:46:12;;;;;;;0.85;0.30;;;;;;;;;;5071079;28;20474;-79
2024/02/08 02:48:40;;;;;;;0.65;0.40;;;;;;;;;;5072132;28;20049;-80
2024/02/08 02:51:11;;;;;;;0.20;0.20;;;;;;;;;;5055358;28;20465;-79
2024/02/08 02:53:42;;;;;;;0.32;0.20;;;;;;;;;;5069816;28;20551;-79
2024/02/08 02:56:11;;;;;;;1.00;0.30;;;;;;;;;;5037770;28;20059;-79
2024/02/08 02:58:42;;;;;;;0.63;0.38;;;;;;;;;;5052805;28;20052;-80
2024/02/08 03:01:12;;;;;;;3.20;0.30;;;;;;;;;;5053783;28;20561;-80
2024/02/08 03:03:40;;;;;;;0.30;0.20;;;;;;;;;;5038570;28;20090;-80
2024/02/08 03:06:13;;;;;;;0.30;0.30;;;;;;;;;;5052803;28;20061;-79
2024/02/08 03:08:46;;;;;;;0.88;0.20;;;;;;;;;;5051868;28;20522;-79
2024/02/08 03:11:14;;;;;;;0.10;0.10;;;;;;;;;;5053414;28;20140;-80
2024/02/08 03:13:43;;;;;;;0.28;0.20;;;;;;;;;;5054306;28;20319;-79
2024/02/08 03:16:14;;;;;;;0.75;0.20;;;;;;;;;;5055411;28;20049;-78
2024/02/08 03:18:43;;;;;;;0.30;0.30;;;;;;;;;;5049049;28;20080;-79
2024/02/08 03:21:17;;;;;;;0.20;0.20;;;;;;;;;;5071557;28;20400;-79
2024/02/08 03:23:46;;;;;;;0.68;0.20;;;;;;;;;;5056485;28;20060;-80
2024/02/08 03:26:15;;;;;;;0.30;0.30;;;;;;;;;;5055627;28;20088;-80
2024/02/08 03:28:46;;;;;;;0.10;0.10;;;;;;;;;;5058611;28;20080;-79
2024/02/08 03:31:17;;;;;;;0.20;0.15;;;;;;;;;;5041282;28;20499;-79
2024/02/08 03:33:45;;;;;;;0.75;0.20;;;;;;;;;;5072982;28;20242;-80
2024/02/08 03:36:13;;;;;;;0.20;0.15;;;;;;;;;;5055295;28;20096;-80
2024/02/08 03:38:41;;;;;;;0.20;0.10;;;;;;;;;;5072645;28;20052;-80
2024/02/08 03:41:08;;;;;;;0.20;0.10;;;;;;;;;;5054539;28;20124;-80
2024/02/08 03:43:36;;;;;;;0.80;0.10;;;;;;;;;;5046013;28;20525;-81
2024/02/08 03:46:04;;;;;;;0.43;0.10;;;;;;;;;;5074276;28;20079;-80
2024/02/08 03:48:32;;;;;;;0.20;0.08;;;;;;;;;;5060418;28;20063;-79
2024/02/08 03:51:00;;;;;;;0.08;0.03;;;;;;;;;;5044110;28;20060;-81
2024/02/08 03:53:29;;;;;;;0.00;0.00;;;;;;;;;;5066670;28;20072;-80
2024/02/08 03:55:57;;;;;;;0.38;0.10;;;;;;;;;;5045997;28;20049;-79
2024/02/08 03:58:24;;;;;;;0.15;0.10;;;;;;;;;;5055362;28;20075;-81
2024/02/08 04:00:53;;;;;;;0.50;0.10;;;;;;;;;;5055567;28;20063;-81
2024/02/08 04:03:53;;;;;;;0.05;0.05;;;;;;;;;;5054453;28;20064;-81
2024/02/08 04:09:08;;;;;;;0.28;0.25;;;;;;;;;;5017133;28;20060;-81
2024/02/08 04:56:09;;;;;;;0.82;0.30;;;;;;;;;;5073229;28;20061;-79
2024/02/08 04:58:40;;;;;;;0.28;0.10;;;;;;;;;;5058066;28;20056;-79
2024/02/08 05:01:13;;;;;;;0.10;0.10;;;;;;;;;;5044642;28;20044;-79
2024/02/08 05:03:42;;;;;;;0.63;0.50;;;;;;;;;;5050776;28;20079;-79
2024/02/08 05:06:18;;;;;;;0.40;0.40;;;;;;;;;;5051076;28;20048;-81
2024/02/08 05:08:47;;;;;;;0.35;0.30;;;;;;;;;;5036453;28;20057;-79
2024/02/08 05:11:15;;;;;;;0.30;0.10;;;;;;;;;;5052388;28;20580;-79
2024/02/08 05:13:52;;;;;;;0.35;0.30;;;;;;;;;;5035697;28;20053;-79
2024/02/08 05:16:20;;;;;;;3.92;0.50;;;;;;;;;;5053881;28;20048;-79
2024/02/08 05:18:48;;;;;;;0.20;0.20;;;;;;;;;;5053209;28;20071;-80
2024/02/08 05:21:16;;;;;;;1.25;0.25;;;;;;;;;;5055587;28;20053;-79
2024/02/08 05:23:47;;;;;;;0.63;0.30;;;;;;;;;;5081264;28;20103;-80
2024/02/08 05:26:19;;;;;;;0.75;0.40;;;;;;;;;;5053026;28;20045;-79
2024/02/08 05:28:52;;;;;;;0.30;0.30;;;;;;;;;;5076692;28;20045;-79
2024/02/08 05:31:23;;;;;;;;;;;;;;;;;;5067328;28;20056;-79
2024/02/08 05:33:51;;;;;;;0.40;0.30;;;;;;;;;;5065000;28;19932;-80
2024/02/08 05:36:23;;;;;;;0.55;0.40;;;;;;;;;;5052170;28;20060;-80
2024/02/08 05:38:56;;;;;;;0.82;0.40;;;;;;;;;;5067224;28;20130;-80
2024/02/08 05:41:24;;;;;;;1.50;0.70;;;;;;;;;;5082014;28;20113;-80
2024/02/08 05:43:51;;;;;;;0.30;0.25;;;;;;;;;;5064813;28;20044;-80
2024/02/08 05:46:27;;;;;;;0.60;0.50;;;;;;;;;;5048653;28;20052;-80
2024/02/08 05:49:13;;;;;;;0.30;0.30;;;;;;;;;;5064673;28;20072;-80
2024/02/08 05:51:46;;;;;;;2.05;0.90;;;;;;;;;;5063713;28;20483;-82
2024/02/08 05:54:20;;;;;;;1.58;0.40;;;;;;;;;;5047032;28;20045;-81
2024/02/08 05:56:57;;;;;;;1.42;0.90;;;;;;;;;;5052450;28;20525;-80
2024/02/08 05:59:24;;;;;;;2.88;1.60;;;;;;;;;;5046988;28;20045;-81
2024/02/08 06:01:54;;;;;;;1.80;1.20;;;;;;;;;;5035716;28;20144;-81
2024/02/08 06:04:24;;;;;;;1.77;1.10;;;;;;;;;;5035857;28;20049;-81
2024/02/08 06:07:05;;;;;;;1.30;1.00;;;;;;;;;;5040411;28;20059;-80
2024/02/08 06:15:32;;;;;;;0.82;0.80;;;;;;;;;;5046118;28;20171;-79
2024/02/08 06:18:13;;;;;;;0.68;0.60;;;;;;;;;;5074661;28;20134;-79
2024/02/08 06:20:43;;;;;;;2.88;0.55;;;;;;;;;;5073719;28;20048;-76
2024/02/08 06:23:17;;;;;;;0.45;0.45;;;;;;;;;;5054146;28;20080;-79
2024/02/08 06:26:20;;;;;;;0.88;0.40;;;;;;;;;;5052646;28;20053;-78
2024/02/08 06:28:46;;;;;;;0.70;0.68;;;;;;;;;;5056031;28;20369;-78
2024/02/08 06:31:18;;;;;;;1.42;0.90;;;;;;;;;;5054777;28;20053;-77
2024/02/08 06:36:49;;;;;;;2.30;0.68;;;;;;;;;;5051069;28;20060;-76
2024/02/08 06:39:23;;;;;;;0.75;0.60;;;;;;;;;;5052729;28;20514;-76
2024/02/08 06:41:52;;;;;;;0.45;0.40;;;;;;;;;;5068958;28;20057;-76
2024/02/08 07:37:59;;;;;;;0.50;0.40;;;;;;;;;;5051810;28;20111;-81
2024/02/08 07:40:27;;;;;;;0.47;0.47;;;;;;;;;;5032719;28;20064;-77
2024/02/08 07:45:48;;;;;;;0.95;0.50;;;;;;;;;;5055821;28;20057;-81
2024/02/08 07:48:37;;;;;;;1.27;0.60;;;;;;;;;;5055375;28;20080;-81
2024/02/08 07:51:07;;;;;;;1.63;0.50;;;;;;;;;;5065884;28;20049;-83
2024/02/08 07:53:51;;;;;;;0.25;0.22;;;;;;;;;;5037998;28;20080;-82
2024/02/08 07:56:46;;;;;;;1.27;0.95;;;;;;;;;;5049508;28;20041;-81
2024/02/08 07:59:26;;;;;;;3.00;2.00;;;;;;;;;;5057064;28;20053;-79
2024/02/08 08:01:57;;;;;;;3.28;1.83;;;;;;;;;;5068423;28;20052;-80
2024/02/08 08:04:41;;;;;;;0.40;0.40;;;;;;;;;;5067322;28;20044;-80
2024/02/08 08:07:12;;;;;;;1.58;0.50;;;;;;;;;;5067482;28;20061;-80
2024/02/08 08:09:41;;;;;;;0.55;0.45;;;;;;;;;;5067340;28;20094;-80
2024/02/08 08:12:08;;;;;;;0.80;0.40;;;;;;;;;;5050606;28;20139;-79
2024/02/08 08:19:47;;;;;;;1.05;0.32;;;;;;;;;;5067182;28;20381;-80
2024/02/08 08:25:10;;;;;;;1.48;0.40;;;;;;;;;;5053538;28;20060;-79
2024/02/08 08:30:29;;;;;;;1.80;0.40;;;;;;;;;;5049953;28;20682;-79
2024/02/08 08:33:08;;;;;;;0.43;0.43;;;;;;;;;;5066057;28;20361;-80
2024/02/08 08:35:53;;;;;;;1.05;0.30;;;;;;;;;;5050520;28;20608;-81
2024/02/08 08:41:00;;;;;;;1.15;0.50;;;;;;;;;;5048198;28;20048;-79
2024/02/08 08:43:31;;;;;;;0.98;0.40;;;;;;;;;;5065908;28;20053;-79
2024/02/08 08:46:09;;;;;;;2.05;0.73;;;;;;;;;;5038883;28;20490;-80
2024/02/08 08:48:37;;;;;;;0.98;0.30;;;;;;;;;;5045611;28;20112;-80
2024/02/08 08:51:10;;;;;;;0.35;0.30;;;;;;;;;;5053525;28;20052;-80
2024/02/08 08:53:56;;;;;;;0.60;0.60;;;;;;;;;;5056280;28;20399;-82
2024/02/08 08:56:28;;;;;;;0.82;0.50;;;;;;;;;;5073208;28;20144;-80
2024/02/08 08:58:58;;;;;;;2.90;0.52;;;;;;;;;;5055586;28;20045;-79
2024/02/08 09:01:28;;;;;;;1.30;0.40;;;;;;;;;;5034127;28;20057;-79
2024/02/08 09:03:55;;;;;;;0.60;0.40;;;;;;;;;;5055608;28;20056;-79
2024/02/08 09:06:30;;;;;;;0.68;0.43;;;;;;;;;;5058383;28;20049;-79
2024/02/08 09:09:27;;;;;;;1.27;0.55;;;;;;;;;;5047696;28;20071;-78
2024/02/08 09:11:57;;;;;;;0.30;0.20;;;;;;;;;;5057329;28;20053;-79
2024/02/08 09:14:30;;;;;;;0.85;0.50;;;;;;;;;;5057372;28;20053;-79
2024/02/08 09:16:58;;;;;;;0.77;0.38;;;;;;;;;;5055687;28;20056;-79
2024/02/08 09:19:47;;;;;;;0.40;0.32;;;;;;;;;;5068989;28;20049;-78
2024/02/08 09:22:17;;;;;;;1.63;0.30;;;;;;;;;;5055727;28;20044;-79
2024/02/08 09:24:45;;;;;;;0.73;0.35;;;;;;;;;;5056392;28;20048;-79
2024/02/08 09:27:19;;;;;;;0.52;0.43;;;;;;;;;;5040304;28;20053;-79
2024/02/08 09:30:13;;;;;;;0.88;0.50;;;;;;;;;;5050909;28;20438;-78
2024/02/08 09:32:46;;;;;;;0.45;0.45;;;;;;;;;;5053356;28;20487;-78
2024/02/08 09:35:17;;;;;;;0.73;0.63;;;;;;;;;;5053892;28;20076;-78
2024/02/08 09:37:46;;;;;;;0.50;0.50;;;;;;;;;;5069630;28;20049;-78
2024/02/08 09:40:42;;;;;;;2.90;0.60;;;;;;;;;;5054397;28;20540;-78
2024/02/08 09:43:17;;;;;;;0.50;0.40;;;;;;;;;;5055997;28;20053;-78
2024/02/08 09:48:53;;;;;;;1.27;0.30;;;;;;;;;;5055341;28;20116;-79
2024/02/08 09:51:23;;;;;;;1.02;0.93;;;;;;;;;;5055357;28;20067;-78
2024/02/08 09:53:54;;;;;;;0.77;0.40;;;;;;;;;;5055748;28;20053;-78
2024/02/08 09:56:37;;;;;;;0.98;0.45;;;;;;;;;;5071119;28;20102;-79
2024/02/08 09:59:08;;;;;;;3.08;0.50;;;;;;;;;;5073890;28;20117;-78
2024/02/08 10:01:44;;;;;;;0.40;0.30;;;;;;;;;;5057148;28;20529;-78
2024/02/08 10:04:16;;;;;;;1.08;0.73;;;;;;;;;;5058234;28;20049;-78
2024/02/08 10:12:40;;;;;;;1.77;0.60;;;;;;;;;;5058984;28;20111;-78
2024/02/08 10:15:14;;;;;;;6.78;1.55;;;;;;;;;;5062461;28;20049;-78
2024/02/08 10:17:42;;;;;;;0.30;0.30;;;;;;;;;;5061418;28;20049;-78
2024/02/08 10:22:53;;;;;;;0.60;0.50;;;;;;;;;;5058781;28;20140;-78
2024/02/08 10:28:09;;;;;;;0.20;0.20;;;;;;;;;;5059989;28;20057;-79
2024/02/08 10:30:44;;;;;;;0.90;0.60;;;;;;;;;;5074721;28;20060;-78
2024/02/08 10:33:14;;;;;;;0.45;0.43;;;;;;;;;;5059416;28;20055;-78
2024/02/08 10:35:42;;;;;;;0.40;0.40;;;;;;;;;;5075693;28;20099;-78
2024/02/08 10:41:18;;;;;;;1.10;0.30;;;;;;;;;;5029436;28;20051;-78
2024/02/08 10:43:57;;;;;;;0.40;0.25;;;;;;;;;;5059959;28;20112;-78
2024/02/08 10:46:31;;;;;;;0.25;0.17;;;;;;;;;;5059090;28;20095;-79
2024/02/08 10:49:08;;;;;;;0.10;0.10;;;;;;;;;;5059046;28;20089;-78
2024/02/08 10:51:43;;;;;;;0.10;0.10;;;;;;;;;;5042112;28;20552;-78
2024/02/08 10:54:14;;;;;;;0.20;0.20;;;;;;;;;;5057764;28;20060;-78
2024/02/08 10:56:48;;;;;;;0.50;0.30;;;;;;;;;;5074212;28;20067;-79
2024/02/08 10:59:55;;;;;;;2.60;0.32;;;;;;;;;;5057492;28;20053;-78
2024/02/08 11:02:31;;;;;;;3.15;1.73;;;;;;;;;;5056962;28;20461;-78
2024/02/08 11:08:13;;;;;;;6.32;3.58;;;;;;;;;;5065287;28;20061;-78
2024/02/08 11:10:42;;;;;;;2.22;1.55;;;;;;;;;;5041358;28;20053;-78
2024/02/08 11:13:11;;;;;;;0.50;0.43;;;;;;;;;;5050601;28;20049;-78
2024/02/08 11:15:43;;;;;;;0.60;0.47;;;;;;;;;;5075418;28;20049;-78
2024/02/08 11:18:33;;;;;;;0.15;0.10;;;;;;;;;;5058630;28;20454;-78
2024/02/08 11:21:04;;;;;;;1.17;0.88;;;;;;;;;;5059650;28;20509;-78
2024/02/08 11:23:32;;;;;;;0.50;0.40;;;;;;;;;;5066294;28;20040;-78
2024/02/08 11:26:07;;;;;;;0.40;0.40;;;;;;;;;;5080238;28;20411;-78
2024/02/08 11:28:50;;;;;;;0.40;0.40;;;;;;;;;;5076428;28;20453;-78
2024/02/08 11:31:18;;;;;;;0.63;0.40;;;;;;;;;;5061031;28;20567;-78
2024/02/08 11:33:46;;;;;;;0.35;0.20;;;;;;;;;;5075327;28;20053;-79
2024/02/08 11:36:22;;;;;;;0.52;0.20;;;;;;;;;;5058102;28;20510;-78
2024/02/08 11:38:58;;;;;;;0.90;0.40;;;;;;;;;;5059621;28;20091;-79
2024/02/08 11:41:31;;;;;;;2.92;0.32;;;;;;;;;;5074483;28;20096;-78
2024/02/08 11:44:05;;;;;;;0.95;0.70;;;;;;;;;;5059894;28;20053;-78
2024/02/08 11:46:45;;;;;;;0.50;0.35;;;;;;;;;;5043685;28;20137;-78
2024/02/08 11:49:31;;;;;;;1.30;0.47;;;;;;;;;;5043718;28;20139;-78
2024/02/08 11:52:15;;;;;;;0.35;0.25;;;;;;;;;;5060489;28;20501;-78
2024/02/08 11:54:44;;;;;;;0.70;0.50;;;;;;;;;;5058782;28;20540;-78
2024/02/08 11:57:13;;;;;;;2.65;0.30;;;;;;;;;;5056403;28;20064;-78
2024/02/08 11:59:45;;;;;;;0.90;0.75;;;;;;;;;;5040308;28;20052;-78
2024/02/08 12:02:16;;;;;;;0.60;0.40;;;;;;;;;;5072827;28;20494;-78
2024/02/08 12:04:48;;;;;;;1.08;0.32;;;;;;;;;;5073770;28;20469;-78
2024/02/08 12:07:20;;;;;;;0.93;0.50;;;;;;;;;;5057976;28;20113;-78
2024/02/08 12:09:59;;;;;;;4.30;0.55;;;;;;;;;;5056870;28;20056;-79
2024/02/08 12:12:30;;;;;;;1.98;0.90;;;;;;;;;;5057312;28;20059;-78
2024/02/08 12:14:58;;;;;;;1.02;0.55;;;;;;;;;;5058161;28;20084;-78
2024/02/08 12:17:26;;;;;;;1.67;0.40;;;;;;;;;;5038869;28;20049;-78
2024/02/08 12:20:01;;;;;;;1.33;0.30;;;;;;;;;;5072689;28;20060;-78
2024/02/08 12:22:29;;;;;;;1.35;0.43;;;;;;;;;;5075733;28;20053;-78
2024/02/08 12:25:07;;;;;;;1.27;0.55;;;;;;;;;;5059744;28;20059;-78
2024/02/08 12:27:48;;;;;;;1.73;0.80;;;;;;;;;;5072428;28;20052;-76
2024/02/08 12:30:21;;;;;;;1.08;0.40;;;;;;;;;;5067510;28;20068;-78
2024/02/08 12:32:50;;;;;;;1.63;0.73;;;;;;;;;;5067524;28;20465;-78
2024/02/08 12:35:20;;;;;;;2.97;0.60;;;;;;;;;;5034699;28;20469;-77
2024/02/08 12:37:48;;;;;;;5.60;2.75;;;;;;;;;;5067313;28;20148;-77
2024/02/08 12:40:16;;;;;;;1.52;1.00;;;;;;;;;;5034598;28;20509;-77
2024/02/08 12:42:46;;;;;;;8.35;1.25;;;;;;;;;;5050669;28;20080;-77
2024/02/08 12:45:15;;;;;;;1.85;0.80;;;;;;;;;;5051171;28;20462;-78
2024/02/08 12:47:49;;;;;;;6.68;0.80;;;;;;;;;;5067379;28;20465;-77
2024/02/08 12:50:17;;;;;;;1.60;0.90;;;;;;;;;;5050813;28;20151;-77
2024/02/08 12:52:57;;;;;;;5.22;0.80;;;;;;;;;;5050812;28;20533;-77
2024/02/08 12:55:29;;;;;;;6.00;0.75;;;;;;;;;;5066963;28;20076;-77
2024/02/08 12:57:58;;;;;;;3.67;1.25;;;;;;;;;;5050515;28;20052;-77
2024/02/08 13:00:26;;;;;;;3.05;0.75;;;;;;;;;;5067315;28;20052;-77
2024/02/08 13:02:54;;;;;;;3.58;1.05;;;;;;;;;;5066908;28;20530;-77
2024/02/08 13:05:28;;;;;;;1.75;0.70;;;;;;;;;;5050860;28;20061;-77
2024/02/08 13:07:57;;;;;;;1.70;0.77;;;;;;;;;;5066859;28;20063;-77
2024/02/08 13:10:26;;;;;;;3.00;1.15;;;;;;;;;;5050416;28;20049;-77
2024/02/08 13:13:03;;;;;;;3.80;1.00;;;;;;;;;;5066626;28;20055;-77
2024/02/08 13:15:34;;;;;;;3.85;1.00;;;;;;;;;;5063976;28;20049;-77
2024/02/08 13:18:09;;;;;;;3.83;0.98;;;;;;;;;;5090930;28;20053;-77
2024/02/08 13:20:37;;;;;;;3.30;1.00;;;;;;;;;;5084721;28;20075;-77
2024/02/08 13:23:10;;;;;;;4.32;1.70;;;;;;;;;;5084295;28;20102;-78
2024/02/08 13:25:39;;;;;;;7.57;2.00;;;;;;;;;;5052192;28;20057;-77
2024/02/08 13:28:09;;;;;;;9.00;1.38;;;;;;;;;;5085552;28;20056;-77
2024/02/08 13:30:39;;;;;;;4.95;1.67;;;;;;;;;;5085051;28;20067;-77
2024/02/08 13:33:10;;;;;;;11.20;4.05;;;;;;;;;;5051191;28;20085;-77
2024/02/08 13:35:42;;;;;;;6.40;1.98;;;;;;;;;;5067490;28;20154;-77
2024/02/08 13:38:15;;;;;;;7.38;1.33;;;;;;;;;;5067191;28;20048;-77
2024/02/08 13:40:43;;;;;;;7.60;1.50;;;;;;;;;;5034771;28;20396;-77
2024/02/08 13:43:12;;;;;;;7.72;1.55;;;;;;;;;;5066894;28;20045;-77
2024/02/08 13:45:40;;;;;;;4.85;2.00;;;;;;;;;;5066588;28;20484;-77
2024/02/08 13:48:15;;;;;;;8.77;2.05;;;;;;;;;;5070123;28;20055;-77
2024/02/08 13:50:44;;;;;;;6.32;1.88;;;;;;;;;;5054132;28;20422;-77
2024/02/08 13:53:15;;;;;;;6.47;1.80;;;;;;;;;;5045872;28;20525;-77
2024/02/08 13:55:52;;;;;;;7.97;1.67;;;;;;;;;;5070255;28;20049;-77
2024/02/08 13:58:25;;;;;;;8.68;1.67;;;;;;;;;;5070139;28;20060;-77
2024/02/08 14:00:57;;;;;;;8.95;2.00;;;;;;;;;;5053637;28;20093;-77
2024/02/08 14:03:29;;;;;;;9.90;1.70;;;;;;;;;;5070209;28;20053;-77
2024/02/08 14:06:02;;;;;;;8.50;2.08;;;;;;;;;;5045708;28;20075;-77
2024/02/08 14:08:30;;;;;;;6.93;1.60;;;;;;;;;;5070309;28;20560;-77
2024/02/08 14:11:09;;;;;;;6.85;1.83;;;;;;;;;;5038295;28;20056;-77
2024/02/08 14:13:37;;;;;;;8.93;2.10;;;;;;;;;;5054592;28;20049;-77
2024/02/08 14:16:15;;;;;;;10.65;1.80;;;;;;;;;;5070096;28;20051;-77
2024/02/08 14:18:52;;;;;;;18.90;3.33;;;;;;;;;;5053544;28;20495;-77
2024/02/08 14:21:24;;;;;;;9.13;1.58;;;;;;;;;;5076960;28;20049;-77
2024/02/08 14:23:59;;;;;;;16.75;2.35;;;;;;;;;;5091349;28;20041;-78
2024/02/08 14:26:42;;;;;;;12.25;2.25;;;;;;;;;;5092438;28;20403;-77
2024/02/08 14:29:13;;;;;;;14.15;2.35;;;;;;;;;;5055865;28;20061;-77
2024/02/08 14:31:41;;;;;;;7.80;1.58;;;;;;;;;;5069882;28;20051;-77
2024/02/08 14:34:10;;;;;;;24.45;3.50;;;;;;;;;;5069755;28;20110;-78
2024/02/08 14:36:42;;;;;;;11.82;1.92;;;;;;;;;;5069140;28;20491;-78
2024/02/08 14:39:32;;;;;;;8.77;2.35;;;;;;;;;;5038235;28;20076;-77
2024/02/08 14:42:17;;;;;;;15.68;2.60;;;;;;;;;;5055924;28;20469;-77
2024/02/08 14:44:51;;;;;;;7.78;1.90;;;;;;;;;;5038955;28;20071;-78
2024/02/08 14:47:25;;;;;;;14.38;2.40;;;;;;;;;;5069810;28;20132;-77
2024/02/08 14:50:00;;;;;;;7.13;2.30;;;;;;;;;;5069648;28;20474;-77
2024/02/08 14:52:34;;;;;;;12.15;2.70;;;;;;;;;;5069716;28;20248;-78
2024/02/08 14:55:19;;;;;;;12.43;2.30;;;;;;;;;;5037512;28;20049;-77
2024/02/08 14:57:52;;;;;;;10.13;1.65;;;;;;;;;;5068365;28;20110;-77
2024/02/08 15:03:07;;;;;;;13.17;2.57;;;;;;;;;;5053256;28;20085;-77
2024/02/08 15:05:46;;;;;;;13.07;2.92;;;;;;;;;;5053474;28;20167;-77
2024/02/08 15:11:09;;;;;;;9.55;2.70;;;;;;;;;;5052607;28;20060;-77
2024/02/08 15:13:45;;;;;;;11.40;2.65;;;;;;;;;;5069208;28;20053;-77
2024/02/08 15:16:14;;;;;;;11.52;2.72;;;;;;;;;;5068886;28;20044;-77
2024/02/08 15:18:48;;;;;;;7.03;1.98;;;;;;;;;;5069009;28;20130;-77
2024/02/08 15:21:23;;;;;;;12.85;2.85;;;;;;;;;;5036771;28;20422;-77
2024/02/08 15:26:44;;;;;;;11.82;2.53;;;;;;;;;;5052588;28;20077;-77
2024/02/08 15:29:30;;;;;;;18.13;2.63;;;;;;;;;;5036595;28;20061;-77
2024/02/08 15:32:02;;;;;;;9.75;1.75;;;;;;;;;;5038191;28;20541;-77
2024/02/08 15:37:28;;;;;;;10.20;1.92;;;;;;;;;;5053610;28;20056;-77
2024/02/08 15:39:58;;;;;;;10.98;2.55;;;;;;;;;;5068558;28;20084;-77
2024/02/08 15:42:32;;;;;;;13.95;1.77;;;;;;;;;;5068588;28;20108;-78
2024/02/08 15:45:00;;;;;;;12.52;3.05;;;;;;;;;;5068996;28;20063;-77
2024/02/08 15:47:28;;;;;;;15.07;2.58;;;;;;;;;;5052271;28;20063;-77
2024/02/08 15:49:56;;;;;;;15.25;2.50;;;;;;;;;;5068401;28;20056;-77
2024/02/08 15:52:33;;;;;;;10.75;2.40;;;;;;;;;;5068405;28;20053;-77
2024/02/08 15:55:14;;;;;;;11.93;2.47;;;;;;;;;;5068431;28;20052;-77
2024/02/08 15:57:53;;;;;;;8.20;2.22;;;;;;;;;;5053675;28;20048;-77
2024/02/08 16:03:17;;;;;;;10.57;2.53;;;;;;;;;;5053036;28;20499;-77
2024/02/08 16:05:46;;;;;;;10.40;2.65;;;;;;;;;;5051855;28;20392;-77
2024/02/08 16:08:14;;;;;;;16.73;3.28;;;;;;;;;;5052253;28;20055;-77
2024/02/08 16:10:44;;;;;;;17.92;3.05;;;;;;;;;;5051393;28;20049;-77
2024/02/08 16:13:13;;;;;;;12.32;2.45;;;;;;;;;;5052400;28;20538;-77
2024/02/08 16:15:55;;;;;;;10.00;2.65;;;;;;;;;;5067995;28;20102;-77
2024/02/08 16:18:35;;;;;;;10.57;2.10;;;;;;;;;;5060140;28;20091;-77
2024/02/08 16:21:05;;;;;;;11.88;2.25;;;;;;;;;;5066006;28;20053;-77
2024/02/08 16:23:43;;;;;;;16.55;2.75;;;;;;;;;;5089671;28;20059;-78
2024/02/08 16:26:12;;;;;;;8.15;2.50;;;;;;;;;;5072157;28;20072;-77
2024/02/08 16:28:49;;;;;;;12.40;2.60;;;;;;;;;;5070391;28;20053;-77
2024/02/08 16:33:54;;;;;;;14.38;2.90;;;;;;;;;;5072327;28;20052;-77
2024/02/08 16:39:24;;;;;;;11.20;2.45;;;;;;;;;;5073280;28;20068;-78
2024/02/08 16:44:37;;;;;;;11.25;3.25;;;;;;;;;;5058823;28;20109;-77
2024/02/08 16:47:27;;;;;;;13.35;2.65;;;;;;;;;;5052385;28;20067;-77
2024/02/08 16:49:58;;;;;;;9.77;2.15;;;;;;;;;;5037792;28;20153;-77
2024/02/08 16:52:39;;;;;;;20.35;3.80;;;;;;;;;;5051232;28;20049;-77
2024/02/08 16:55:12;;;;;;;12.60;2.67;;;;;;;;;;5052902;28;20056;-77
2024/02/08 16:57:47;;;;;;;10.35;3.28;;;;;;;;;;5051693;28;20048;-77
2024/02/08 17:03:36;;;;;;;14.52;3.47;;;;;;;;;;5052007;28;20045;-78
2024/02/08 17:05:53;;;;;;;;;;;;;;;;;;5052453;28;20125;-77
2024/02/08 17:08:40;;;;;;;15.27;4.18;;;;;;;;;;5052032;28;19942;-78
2024/02/08 17:11:15;;;;;;;20.85;3.92;;;;;;;;;;5067762;28;20059;-78
2024/02/08 17:13:50;;;;;;;11.07;2.20;;;;;;;;;;5067203;28;20439;-77
2024/02/08 17:25:03;;;;;;;20.70;6.85;;;;;;;;;;5063731;28;20049;-78
2024/02/08 17:27:38;;;;;;;16.00;3.75;;;;;;;;;;5073523;28;20052;-78
2024/02/08 17:30:07;;;;;;;14.15;4.00;;;;;;;;;;5066862;28;20088;-77
2024/02/08 17:32:42;;;;;;;17.48;2.63;;;;;;;;;;5067228;28;20053;-77
2024/02/08 17:35:15;;;;;;;15.32;3.30;;;;;;;;;;5067019;28;20465;-77
2024/02/08 17:37:59;;;;;;;15.75;3.10;;;;;;;;;;5050662;28;20049;-77
2024/02/08 17:40:30;;;;;;;15.57;4.93;;;;;;;;;;5067186;28;20090;-77
2024/02/08 17:42:58;;;;;;;16.88;4.55;;;;;;;;;;5066895;28;20072;-78
2024/02/08 17:48:14;;;;;;;19.92;4.97;;;;;;;;;;5051611;28;20059;-77
2024/02/08 17:50:47;;;;;;;18.27;4.28;;;;;;;;;;5050753;28;20080;-77
2024/02/08 17:53:25;;;;;;;18.95;4.53;;;;;;;;;;5051232;28;20053;-78
2024/02/08 17:55:54;;;;;;;15.35;3.70;;;;;;;;;;5034698;28;20057;-77
2024/02/08 17:58:24;;;;;;;17.00;3.67;;;;;;;;;;5050637;28;20091;-77
2024/02/08 18:00:51;;;;;;;18.30;4.00;;;;;;;;;;5067227;28;20060;-78
2024/02/08 18:03:26;;;;;;;14.48;5.03;;;;;;;;;;5066695;28;20545;-78
2024/02/08 18:05:56;;;;;;;25.77;6.40;;;;;;;;;;5067006;28;20057;-77
2024/02/08 18:08:28;;;;;;;25.58;4.53;;;;;;;;;;5050429;28;20059;-77
2024/02/08 18:11:00;;;;;;;15.98;3.92;;;;;;;;;;5043169;28;20539;-77
2024/02/08 18:13:32;;;;;;;17.35;3.03;;;;;;;;;;5058594;28;20583;-78
2024/02/08 18:16:09;;;;;;;19.33;4.32;;;;;;;;;;5066809;28;20049;-77